createdAt,value
2023-04-01T00:00:11.093Z,23.89
2023-04-01T00:01:11.156Z,23.89
2023-04-01T00:02:11.177Z,23.89
2023-04-01T00:03:11.232Z,23.89
2023-04-01T00:04:11.239Z,23.89
2023-04-01T00:05:11.211Z,23.89
2023-04-01T00:06:11.236Z,23.89
2023-04-01T00:07:11.261Z,23.89
2023-04-01T00:08:11.700Z,23.88
2023-04-01T00:09:11.287Z,23.89
2023-04-01T00:10:11.312Z,23.89
2023-04-01T00:11:11.366Z,23.89
2023-04-01T00:12:11.427Z,23.89
2023-04-01T00:13:11.420Z,23.89
2023-04-01T00:14:11.472Z,23.89
2023-04-01T00:15:11.501Z,23.88
2023-04-01T00:16:21.041Z,23.88
2023-04-01T00:17:12.488Z,23.89
2023-04-01T00:18:11.453Z,23.89
2023-04-01T00:19:11.440Z,23.89
2023-04-01T00:20:11.400Z,23.89
2023-04-01T00:21:11.409Z,23.89
2023-04-01T00:22:11.372Z,23.88
2023-04-01T00:23:11.322Z,23.89
2023-04-01T00:24:11.309Z,23.89
2023-04-01T00:25:11.292Z,23.87
2023-04-01T00:26:11.258Z,23.88
2023-04-01T00:27:11.306Z,23.88
2023-04-01T00:28:11.283Z,23.88
2023-04-01T00:29:11.364Z,23.88
2023-04-01T00:30:11.364Z,23.88
2023-04-01T00:31:11.519Z,23.87
2023-04-01T00:32:11.411Z,23.88
2023-04-01T00:33:11.520Z,23.89
2023-04-01T00:34:11.514Z,23.87
2023-04-01T00:35:11.536Z,23.88
2023-04-01T00:36:11.567Z,23.88
2023-04-01T00:37:11.595Z,23.88
2023-04-01T00:38:11.635Z,23.88
2023-04-01T00:39:11.665Z,23.88
2023-04-01T00:40:11.731Z,23.89
2023-04-01T00:41:11.744Z,23.88
2023-04-01T00:42:11.781Z,23.88
2023-04-01T00:43:11.803Z,23.88
2023-04-01T00:44:11.839Z,23.88
2023-04-01T00:45:11.854Z,23.89
2023-04-01T00:46:11.898Z,23.88
2023-04-01T00:47:11.984Z,23.88
2023-04-01T00:48:11.973Z,23.87
2023-04-01T00:49:11.974Z,23.88
2023-04-01T00:50:12.013Z,23.88
2023-04-01T00:51:12.059Z,23.88
2023-04-01T00:52:12.089Z,23.88
2023-04-01T00:53:12.072Z,23.87
2023-04-01T00:54:12.109Z,23.88
2023-04-01T00:55:12.156Z,23.87
2023-04-01T00:56:12.174Z,23.88
2023-04-01T00:57:12.264Z,23.88
2023-04-01T00:58:12.215Z,23.89
2023-04-01T00:59:12.265Z,23.88
2023-04-01T01:00:12.328Z,23.87
2023-04-01T01:01:12.369Z,23.88
2023-04-01T01:02:12.368Z,23.88
2023-04-01T01:03:12.562Z,23.88
2023-04-01T01:04:12.405Z,23.88
2023-04-01T01:05:12.496Z,23.88
2023-04-01T01:06:12.456Z,23.88
2023-04-01T01:07:12.544Z,23.88
2023-04-01T01:08:12.585Z,23.88
2023-04-01T01:09:12.582Z,23.87
2023-04-01T01:10:12.611Z,23.88
2023-04-01T01:11:12.698Z,23.87
2023-04-01T01:12:12.665Z,23.88
2023-04-01T01:13:12.737Z,23.87
2023-04-01T01:14:12.759Z,23.88
2023-04-01T01:15:12.765Z,23.88
2023-04-01T01:16:12.821Z,23.88
2023-04-01T01:17:12.829Z,23.88
2023-04-01T01:18:12.873Z,23.87
2023-04-01T01:19:12.888Z,23.87
2023-04-01T01:20:25.417Z,23.88
2023-04-01T01:21:13.924Z,23.87
2023-04-01T01:22:12.889Z,23.87
2023-04-01T01:23:12.901Z,23.87
2023-04-01T01:24:12.844Z,23.87
2023-04-01T01:25:12.830Z,23.87
2023-04-01T01:26:12.793Z,23.88
2023-04-01T01:27:12.821Z,23.88
2023-04-01T01:28:12.751Z,23.88
2023-04-01T01:29:12.744Z,23.88
2023-04-01T01:30:12.757Z,23.88
2023-04-01T01:31:12.719Z,23.89
2023-04-01T01:32:12.720Z,23.88
2023-04-01T01:33:12.762Z,23.88
2023-04-01T01:34:12.775Z,23.88
2023-04-01T01:35:12.795Z,23.89
2023-04-01T01:36:12.889Z,23.89
2023-04-01T01:37:12.876Z,23.88
2023-04-01T01:38:12.885Z,23.88
2023-04-01T01:39:12.900Z,23.89
2023-04-01T01:40:12.888Z,23.88
2023-04-01T01:41:12.917Z,23.88
2023-04-01T01:42:12.945Z,23.89
2023-04-01T01:43:12.984Z,23.89
2023-04-01T01:44:13.017Z,23.89
2023-04-01T01:45:13.015Z,23.88
2023-04-01T01:46:13.178Z,23.89
2023-04-01T01:47:13.089Z,23.88
2023-04-01T01:48:13.151Z,23.89
2023-04-01T01:49:13.178Z,23.89
2023-04-01T01:50:13.176Z,23.88
2023-04-01T01:51:13.237Z,23.88
2023-04-01T01:52:13.238Z,23.89
2023-04-01T01:53:13.265Z,23.89
2023-04-01T01:54:13.334Z,23.89
2023-04-01T01:55:13.329Z,23.89
2023-04-01T01:56:13.332Z,23.89
2023-04-01T01:57:13.401Z,23.89
2023-04-01T01:58:13.419Z,23.89
2023-04-01T01:59:13.427Z,23.89
2023-04-01T02:00:13.438Z,23.89
2023-04-01T02:01:13.554Z,23.89
2023-04-01T02:02:13.508Z,23.88
2023-04-01T02:03:13.548Z,23.89
2023-04-01T02:04:13.613Z,23.89
2023-04-01T02:05:13.574Z,23.89
2023-04-01T02:06:13.634Z,23.88
2023-04-01T02:07:13.660Z,23.89
2023-04-01T02:08:13.611Z,23.89
2023-04-01T02:09:13.688Z,23.89
2023-04-01T02:10:13.660Z,23.89
2023-04-01T02:11:13.660Z,23.89
2023-04-01T02:12:13.658Z,23.89
2023-04-01T02:13:13.697Z,23.88
2023-04-01T02:14:13.781Z,23.89
2023-04-01T02:15:13.785Z,23.88
2023-04-01T02:16:13.800Z,23.89
2023-04-01T02:17:13.869Z,23.89
2023-04-01T02:18:13.846Z,23.89
2023-04-01T02:19:13.850Z,23.89
2023-04-01T02:20:13.882Z,23.89
2023-04-01T02:21:13.909Z,23.89
2023-04-01T02:22:13.954Z,23.89
2023-04-01T02:23:13.936Z,23.88
2023-04-01T02:24:13.996Z,23.88
2023-04-01T02:25:13.978Z,23.89
2023-04-01T02:26:14.037Z,23.90
2023-04-01T02:27:14.076Z,23.89
2023-04-01T02:28:14.071Z,23.89
2023-04-01T02:29:14.153Z,23.89
2023-04-01T02:30:14.207Z,23.89
2023-04-01T02:31:14.277Z,23.89
2023-04-01T02:32:14.271Z,23.89
2023-04-01T02:33:14.310Z,23.89
2023-04-01T02:34:14.318Z,23.89
2023-04-01T02:35:14.337Z,23.89
2023-04-01T02:36:14.388Z,23.89
2023-04-01T02:37:14.377Z,23.89
2023-04-01T02:38:14.383Z,23.88
2023-04-01T02:39:14.432Z,23.89
2023-04-01T02:40:14.452Z,23.89
2023-04-01T02:41:14.484Z,23.89
2023-04-01T02:42:14.537Z,23.89
2023-04-01T02:43:14.542Z,23.89
2023-04-01T02:44:14.629Z,23.88
2023-04-01T02:45:14.615Z,23.88
2023-04-01T02:46:14.707Z,23.89
2023-04-01T02:47:14.683Z,23.88
2023-04-01T02:48:14.692Z,23.88
2023-04-01T02:49:14.718Z,23.88
2023-04-01T02:50:14.766Z,23.88
2023-04-01T02:51:16.130Z,23.88
2023-04-01T02:52:15.003Z,23.89
2023-04-01T02:53:15.027Z,23.89
2023-04-01T02:54:15.071Z,23.88
2023-04-01T02:55:15.088Z,23.88
2023-04-01T02:56:15.118Z,23.89
2023-04-01T02:57:15.183Z,23.89
2023-04-01T02:58:15.210Z,23.88
2023-04-01T02:59:15.303Z,23.88
2023-04-01T03:00:15.245Z,23.88
2023-04-01T03:01:15.269Z,23.89
2023-04-01T03:02:15.319Z,23.88
2023-04-01T03:03:15.348Z,23.89
2023-04-01T03:04:15.313Z,23.89
2023-04-01T03:05:15.315Z,23.89
2023-04-01T03:06:15.328Z,23.89
2023-04-01T03:07:15.378Z,23.88
2023-04-01T03:08:15.379Z,23.88
2023-04-01T03:09:15.490Z,23.89
2023-04-01T03:10:15.518Z,23.88
2023-04-01T03:11:15.476Z,23.88
2023-04-01T03:12:15.552Z,23.89
2023-04-01T03:13:15.481Z,23.89
2023-04-01T03:14:15.433Z,23.89
2023-04-01T03:15:15.588Z,23.89
2023-04-01T03:16:15.540Z,23.89
2023-04-01T03:17:15.546Z,23.89
2023-04-01T03:18:15.552Z,23.89
2023-04-01T03:19:15.533Z,23.89
2023-04-01T03:20:15.625Z,23.88
2023-04-01T03:21:15.566Z,23.89
2023-04-01T03:22:15.616Z,23.89
2023-04-01T03:23:15.629Z,23.89
2023-04-01T03:24:15.635Z,23.89
2023-04-01T03:25:15.634Z,23.89
2023-04-01T03:26:15.700Z,23.89
2023-04-01T03:27:15.667Z,23.89
2023-04-01T03:28:15.686Z,23.88
2023-04-01T03:29:15.696Z,23.88
2023-04-01T03:30:15.792Z,23.88
2023-04-01T03:31:15.733Z,23.89
2023-04-01T03:32:15.760Z,23.89
2023-04-01T03:33:15.750Z,23.88
2023-04-01T03:34:15.763Z,23.88
2023-04-01T03:35:15.765Z,23.88
2023-04-01T03:36:15.772Z,23.89
2023-04-01T03:37:15.782Z,23.89
2023-04-01T03:38:15.812Z,23.89
2023-04-01T03:39:15.798Z,23.89
2023-04-01T03:40:15.823Z,23.89
2023-04-01T03:41:15.823Z,23.88
2023-04-01T03:42:15.792Z,23.88
2023-04-01T03:43:15.800Z,23.87
2023-04-01T03:44:15.820Z,23.89
2023-04-01T03:45:15.826Z,23.88
2023-04-01T03:46:15.828Z,23.89
2023-04-01T03:47:15.854Z,23.87
2023-04-01T03:48:15.862Z,23.88
2023-04-01T03:49:15.910Z,23.87
2023-04-01T03:50:15.945Z,23.88
2023-04-01T03:51:15.930Z,23.88
2023-04-01T03:52:15.965Z,23.88
2023-04-01T03:53:15.969Z,23.88
2023-04-01T03:54:16.027Z,23.88
2023-04-01T03:55:16.061Z,23.87
2023-04-01T03:56:16.028Z,23.87
2023-04-01T03:57:16.055Z,23.88
2023-04-01T03:58:16.076Z,23.88
2023-04-01T03:59:16.101Z,23.87
2023-04-01T04:00:16.113Z,23.87
2023-04-01T04:01:16.129Z,23.87
2023-04-01T04:02:16.190Z,23.88
2023-04-01T04:03:16.244Z,23.87
2023-04-01T04:04:16.195Z,23.87
2023-04-01T04:05:16.237Z,23.87
2023-04-01T04:06:16.282Z,23.88
2023-04-01T04:07:16.292Z,23.87
2023-04-01T04:08:16.304Z,23.88
2023-04-01T04:09:16.329Z,23.87
2023-04-01T04:10:16.312Z,23.87
2023-04-01T04:11:16.334Z,23.87
2023-04-01T04:12:16.369Z,23.87
2023-04-01T04:13:16.327Z,23.87
2023-04-01T04:14:16.333Z,23.87
2023-04-01T04:15:16.398Z,23.87
2023-04-01T04:16:16.450Z,23.87
2023-04-01T04:17:16.410Z,23.88
2023-04-01T04:18:16.410Z,23.87
2023-04-01T04:19:16.554Z,23.87
2023-04-01T04:20:16.412Z,23.87
2023-04-01T04:21:16.436Z,23.88
2023-04-01T04:22:16.446Z,23.87
2023-04-01T04:23:16.448Z,23.87
2023-04-01T04:24:16.430Z,23.87
2023-04-01T04:25:16.418Z,23.87
2023-04-01T04:26:16.403Z,23.87
2023-04-01T04:27:16.381Z,23.87
2023-04-01T04:28:16.417Z,23.87
2023-04-01T04:29:16.361Z,23.87
2023-04-01T04:30:16.388Z,23.88
2023-04-01T04:31:16.426Z,23.87
2023-04-01T04:32:16.369Z,23.87
2023-04-01T04:33:16.408Z,23.87
2023-04-01T04:34:16.408Z,23.87
2023-04-01T04:35:16.393Z,23.87
2023-04-01T04:36:16.411Z,23.87
2023-04-01T04:37:16.386Z,23.88
2023-04-01T04:38:16.408Z,23.87
2023-04-01T04:39:16.410Z,23.86
2023-04-01T04:40:16.423Z,23.87
2023-04-01T04:41:16.413Z,23.87
2023-04-01T04:42:16.398Z,23.88
2023-04-01T04:43:16.395Z,23.88
2023-04-01T04:44:16.432Z,23.88
2023-04-01T04:45:16.427Z,23.88
2023-04-01T04:46:16.481Z,23.87
2023-04-01T04:47:16.523Z,23.87
2023-04-01T04:48:16.401Z,23.87
2023-04-01T04:49:16.449Z,23.87
2023-04-01T04:50:16.448Z,23.87
2023-04-01T04:51:16.539Z,23.86
2023-04-01T04:52:16.546Z,23.86
2023-04-01T04:53:16.592Z,23.86
2023-04-01T04:54:16.634Z,23.86
2023-04-01T04:55:16.667Z,23.86
2023-04-01T04:56:16.720Z,23.87
2023-04-01T04:57:16.780Z,23.87
2023-04-01T04:58:16.759Z,23.87
2023-04-01T04:59:16.750Z,23.87
2023-04-01T05:00:16.769Z,23.87
2023-04-01T05:01:16.822Z,23.87
2023-04-01T05:02:16.837Z,23.87
2023-04-01T05:03:16.954Z,23.87
2023-04-01T05:04:16.880Z,23.87
2023-04-01T05:05:16.898Z,23.87
2023-04-01T05:06:16.951Z,23.87
2023-04-01T05:07:16.971Z,23.87
2023-04-01T05:08:17.003Z,23.87
2023-04-01T05:09:16.989Z,23.87
2023-04-01T05:10:17.020Z,23.87
2023-04-01T05:11:17.042Z,23.87
2023-04-01T05:12:17.074Z,23.86
2023-04-01T05:13:17.108Z,23.87
2023-04-01T05:14:17.162Z,23.86
2023-04-01T05:15:17.194Z,23.87
2023-04-01T05:16:17.204Z,23.87
2023-04-01T05:17:17.178Z,23.87
2023-04-01T05:18:17.259Z,23.88
2023-04-01T05:19:17.284Z,23.87
2023-04-01T05:20:17.314Z,23.87
2023-04-01T05:21:17.350Z,23.87
2023-04-01T05:22:17.397Z,23.87
2023-04-01T05:23:17.433Z,23.87
2023-04-01T05:24:17.470Z,23.87
2023-04-01T05:25:17.486Z,23.87
2023-04-01T05:26:17.513Z,23.87
2023-04-01T05:27:17.526Z,23.87
2023-04-01T05:28:17.552Z,23.88
2023-04-01T05:29:17.546Z,23.88
2023-04-01T05:30:17.564Z,23.88
2023-04-01T05:31:17.622Z,23.88
2023-04-01T05:32:17.574Z,23.88
2023-04-01T05:33:17.574Z,23.88
2023-04-01T05:34:17.626Z,23.88
2023-04-01T05:35:17.635Z,23.87
2023-04-01T05:36:17.719Z,23.88
2023-04-01T05:37:17.683Z,23.88
2023-04-01T05:38:17.680Z,23.88
2023-04-01T05:39:17.680Z,23.88
2023-04-01T05:40:17.683Z,23.89
2023-04-01T05:41:17.661Z,23.88
2023-04-01T05:42:17.712Z,23.88
2023-04-01T05:43:17.733Z,23.88
2023-04-01T05:44:17.695Z,23.88
2023-04-01T05:45:17.732Z,23.89
2023-04-01T05:46:17.778Z,23.89
2023-04-01T05:47:17.718Z,23.88
2023-04-01T05:48:17.669Z,23.88
2023-04-01T05:49:17.681Z,23.89
2023-04-01T05:50:17.713Z,23.89
2023-04-01T05:51:17.765Z,23.89
2023-04-01T05:52:17.773Z,23.88
2023-04-01T05:53:17.803Z,23.89
2023-04-01T05:54:17.834Z,23.89
2023-04-01T05:55:17.851Z,23.89
2023-04-01T05:56:17.853Z,23.89
2023-04-01T05:57:17.882Z,23.90
2023-04-01T05:58:17.875Z,23.90
2023-04-01T05:59:17.956Z,23.89
2023-04-01T06:00:17.942Z,23.90
2023-04-01T06:01:17.964Z,23.90
2023-04-01T06:02:18.022Z,23.90
2023-04-01T06:03:18.154Z,23.90
2023-04-01T06:04:18.061Z,23.90
2023-04-01T06:05:18.027Z,23.90
2023-04-01T06:06:18.037Z,23.91
2023-04-01T06:07:18.054Z,23.91
2023-04-01T06:08:19.718Z,23.91
2023-04-01T06:09:18.148Z,23.91
2023-04-01T06:10:18.175Z,23.92
2023-04-01T06:11:18.174Z,23.92
2023-04-01T06:12:18.140Z,23.92
2023-04-01T06:13:18.154Z,23.93
2023-04-01T06:14:18.214Z,23.93
2023-04-01T06:15:18.218Z,23.93
2023-04-01T06:16:18.359Z,23.93
2023-04-01T06:17:18.219Z,23.93
2023-04-01T06:18:18.233Z,23.93
2023-04-01T06:19:18.273Z,23.94
2023-04-01T06:20:18.288Z,23.93
2023-04-01T06:21:18.309Z,23.94
2023-04-01T06:22:18.358Z,23.94
2023-04-01T06:23:18.357Z,23.95
2023-04-01T06:24:18.383Z,23.95
2023-04-01T06:25:18.394Z,23.94
2023-04-01T06:26:18.498Z,23.95
2023-04-01T06:27:18.420Z,23.95
2023-04-01T06:28:18.469Z,23.94
2023-04-01T06:29:18.534Z,23.95
2023-04-01T06:30:18.527Z,23.94
2023-04-01T06:31:18.640Z,23.95
2023-04-01T06:32:18.631Z,23.95
2023-04-01T06:33:18.602Z,23.95
2023-04-01T06:34:18.610Z,23.95
2023-04-01T06:35:18.673Z,23.95
2023-04-01T06:36:18.724Z,23.95
2023-04-01T06:37:18.720Z,23.95
2023-04-01T06:38:18.795Z,23.95
2023-04-01T06:39:18.836Z,23.95
2023-04-01T06:40:18.925Z,23.94
2023-04-01T06:41:18.921Z,23.94
2023-04-01T06:42:18.957Z,23.94
2023-04-01T06:43:19.183Z,23.94
2023-04-01T06:44:19.055Z,23.94
2023-04-01T06:45:19.085Z,23.95
2023-04-01T06:46:19.140Z,23.94
2023-04-01T06:47:19.153Z,23.94
2023-04-01T06:48:19.192Z,23.95
2023-04-01T06:49:19.212Z,23.95
2023-04-01T06:50:19.258Z,23.94
2023-04-01T06:51:19.286Z,23.95
2023-04-01T06:52:19.333Z,23.95
2023-04-01T06:53:19.383Z,23.94
2023-04-01T06:54:19.411Z,23.95
2023-04-01T06:55:20.693Z,23.95
2023-04-01T06:56:19.377Z,23.95
2023-04-01T06:57:19.404Z,23.96
2023-04-01T06:58:19.353Z,23.95
2023-04-01T06:59:19.316Z,23.95
2023-04-01T07:00:19.280Z,23.95
2023-04-01T07:01:19.323Z,23.96
2023-04-01T07:02:19.260Z,23.96
2023-04-01T07:03:19.507Z,23.96
2023-04-01T07:04:19.239Z,23.97
2023-04-01T07:05:19.195Z,23.96
2023-04-01T07:06:19.154Z,23.97
2023-04-01T07:07:19.131Z,23.97
2023-04-01T07:08:19.115Z,23.96
2023-04-01T07:09:19.077Z,23.97
2023-04-01T07:10:19.078Z,23.97
2023-04-01T07:11:19.013Z,23.97
2023-04-01T07:12:18.984Z,23.97
2023-04-01T07:13:18.978Z,23.97
2023-04-01T07:14:18.956Z,23.97
2023-04-01T07:15:18.980Z,23.97
2023-04-01T07:16:19.043Z,23.97
2023-04-01T07:17:18.878Z,23.98
2023-04-01T07:18:18.869Z,23.98
2023-04-01T07:19:18.845Z,23.98
2023-04-01T07:20:18.848Z,23.98
2023-04-01T07:21:18.768Z,23.98
2023-04-01T07:22:18.732Z,23.98
2023-04-01T07:23:18.719Z,23.99
2023-04-01T07:24:18.722Z,23.99
2023-04-01T07:25:18.714Z,23.99
2023-04-01T07:26:18.649Z,23.99
2023-04-01T07:27:18.607Z,23.99
2023-04-01T07:28:18.616Z,23.99
2023-04-01T07:29:18.589Z,24.00
2023-04-01T07:30:18.656Z,24.00
2023-04-01T07:31:18.545Z,24.01
2023-04-01T07:32:18.477Z,24.00
2023-04-01T07:33:18.476Z,24.01
2023-04-01T07:34:18.459Z,24.01
2023-04-01T07:35:18.434Z,24.01
2023-04-01T07:36:18.439Z,24.01
2023-04-01T07:37:18.362Z,24.01
2023-04-01T07:38:18.361Z,24.01
2023-04-01T07:39:18.323Z,24.02
2023-04-01T07:40:18.325Z,24.02
2023-04-01T07:41:18.842Z,24.02
2023-04-01T07:42:18.248Z,24.01
2023-04-01T07:43:18.296Z,24.01
2023-04-01T07:44:18.344Z,24.01
2023-04-01T07:45:18.365Z,24.02
2023-04-01T07:46:18.452Z,24.01
2023-04-01T07:47:18.478Z,24.01
2023-04-01T07:48:18.488Z,24.01
2023-04-01T07:49:18.518Z,24.01
2023-04-01T07:50:18.550Z,24.01
2023-04-01T07:51:18.562Z,24.01
2023-04-01T07:52:18.545Z,24.00
2023-04-01T07:53:18.591Z,24.01
2023-04-01T07:54:18.642Z,24.00
2023-04-01T07:55:18.697Z,24.01
2023-04-01T07:56:18.680Z,24.00
2023-04-01T07:57:18.772Z,24.01
2023-04-01T07:58:18.781Z,24.01
2023-04-01T07:59:18.828Z,24.01
2023-04-01T08:00:18.844Z,24.01
2023-04-01T08:01:18.871Z,24.01
2023-04-01T08:02:19.032Z,24.02
2023-04-01T08:03:19.045Z,24.01
2023-04-01T08:04:19.002Z,24.01
2023-04-01T08:05:18.958Z,24.01
2023-04-01T08:06:18.961Z,24.01
2023-04-01T08:07:18.979Z,24.02
2023-04-01T08:08:19.019Z,24.02
2023-04-01T08:09:19.023Z,24.02
2023-04-01T08:10:19.050Z,24.02
2023-04-01T08:11:19.097Z,24.02
2023-04-01T08:12:19.094Z,24.02
2023-04-01T08:13:19.124Z,24.02
2023-04-01T08:14:19.186Z,24.02
2023-04-01T08:15:19.234Z,24.02
2023-04-01T08:16:19.361Z,24.03
2023-04-01T08:17:19.225Z,24.03
2023-04-01T08:18:19.272Z,24.04
2023-04-01T08:19:19.316Z,24.03
2023-04-01T08:20:19.385Z,24.04
2023-04-01T08:21:19.359Z,24.04
2023-04-01T08:22:19.379Z,24.04
2023-04-01T08:23:19.436Z,24.05
2023-04-01T08:24:21.415Z,24.05
2023-04-01T08:25:19.416Z,24.06
2023-04-01T08:26:19.380Z,24.05
2023-04-01T08:27:19.393Z,24.06
2023-04-01T08:28:19.331Z,24.07
2023-04-01T08:29:19.346Z,24.06
2023-04-01T08:30:19.316Z,24.06
2023-04-01T08:31:19.254Z,24.08
2023-04-01T08:32:19.256Z,24.07
2023-04-01T08:33:19.229Z,24.08
2023-04-01T08:34:19.195Z,24.08
2023-04-01T08:35:19.163Z,24.08
2023-04-01T08:36:19.217Z,24.08
2023-04-01T08:37:19.134Z,24.08
2023-04-01T08:38:19.061Z,24.08
2023-04-01T08:39:19.039Z,24.09
2023-04-01T08:40:19.031Z,24.09
2023-04-01T08:41:18.989Z,24.09
2023-04-01T08:42:18.966Z,24.09
2023-04-01T08:43:18.921Z,24.10
2023-04-01T08:44:18.905Z,24.10
2023-04-01T08:45:18.930Z,24.10
2023-04-01T08:46:18.900Z,24.10
2023-04-01T08:47:18.811Z,24.10
2023-04-01T08:48:18.792Z,24.10
2023-04-01T08:49:18.791Z,24.11
2023-04-01T08:50:18.740Z,24.11
2023-04-01T08:51:18.686Z,24.11
2023-04-01T08:52:18.703Z,24.12
2023-04-01T08:53:18.664Z,24.12
2023-04-01T08:54:18.616Z,24.12
2023-04-01T08:55:18.590Z,24.13
2023-04-01T08:56:18.566Z,24.13
2023-04-01T08:57:18.640Z,24.13
2023-04-01T08:58:18.504Z,24.14
2023-04-01T08:59:18.490Z,24.15
2023-04-01T09:00:18.439Z,24.14
2023-04-01T09:01:18.498Z,24.14
2023-04-01T09:02:18.398Z,24.15
2023-04-01T09:03:18.428Z,24.15
2023-04-01T09:04:18.345Z,24.14
2023-04-01T09:05:18.308Z,24.15
2023-04-01T09:06:18.265Z,24.16
2023-04-01T09:07:18.211Z,24.15
2023-04-01T09:08:18.263Z,24.15
2023-04-01T09:09:18.259Z,24.15
2023-04-01T09:10:18.274Z,24.16
2023-04-01T09:11:18.307Z,24.16
2023-04-01T09:12:18.293Z,24.16
2023-04-01T09:13:18.343Z,24.16
2023-04-01T09:14:18.328Z,24.15
2023-04-01T09:15:18.406Z,24.16
2023-04-01T09:16:18.462Z,24.15
2023-04-01T09:17:18.405Z,24.16
2023-04-01T09:18:18.595Z,24.16
2023-04-01T09:19:18.485Z,24.16
2023-04-01T09:20:18.624Z,24.16
2023-04-01T09:21:18.502Z,24.16
2023-04-01T09:22:18.642Z,24.16
2023-04-01T09:23:18.535Z,24.16
2023-04-01T09:24:18.620Z,24.17
2023-04-01T09:25:18.657Z,24.17
2023-04-01T09:26:18.698Z,24.17
2023-04-01T09:27:18.659Z,24.18
2023-04-01T09:28:18.714Z,24.19
2023-04-01T09:29:18.638Z,24.18
2023-04-01T09:30:18.864Z,24.18
2023-04-01T09:31:18.792Z,24.18
2023-04-01T09:32:18.727Z,24.18
2023-04-01T09:33:18.752Z,24.17
2023-04-01T09:34:18.765Z,24.18
2023-04-01T09:35:18.787Z,24.18
2023-04-01T09:36:18.880Z,24.18
2023-04-01T09:37:18.918Z,24.18
2023-04-01T09:38:18.876Z,24.18
2023-04-01T09:39:18.894Z,24.17
2023-04-01T09:40:18.995Z,24.16
2023-04-01T09:41:18.978Z,24.17
2023-04-01T09:42:18.989Z,24.17
2023-04-01T09:43:19.067Z,24.17
2023-04-01T09:44:19.074Z,24.17
2023-04-01T09:45:19.084Z,24.17
2023-04-01T09:46:19.125Z,24.17
2023-04-01T09:47:19.148Z,24.17
2023-04-01T09:48:19.163Z,24.18
2023-04-01T09:49:19.188Z,24.18
2023-04-01T09:50:19.278Z,24.18
2023-04-01T09:51:19.231Z,24.17
2023-04-01T09:52:19.280Z,24.18
2023-04-01T09:53:19.253Z,24.17
2023-04-01T09:54:19.313Z,24.18
2023-04-01T09:55:19.336Z,24.18
2023-04-01T09:56:19.384Z,24.18
2023-04-01T09:57:19.440Z,24.18
2023-04-01T09:58:19.426Z,24.19
2023-04-01T09:59:19.453Z,24.19
2023-04-01T10:00:19.483Z,24.18
2023-04-01T10:01:19.559Z,24.19
2023-04-01T10:02:19.542Z,24.19
2023-04-01T10:03:19.570Z,24.18
2023-04-01T10:04:19.588Z,24.18
2023-04-01T10:05:19.675Z,24.19
2023-04-01T10:06:19.636Z,24.19
2023-04-01T10:07:19.644Z,24.20
2023-04-01T10:08:19.681Z,24.20
2023-04-01T10:09:19.708Z,24.19
2023-04-01T10:10:19.708Z,24.21
2023-04-01T10:11:19.754Z,24.21
2023-04-01T10:12:19.795Z,24.21
2023-04-01T10:13:19.799Z,24.21
2023-04-01T10:14:19.820Z,24.21
2023-04-01T10:15:19.836Z,24.22
2023-04-01T10:16:19.956Z,24.22
2023-04-01T10:17:19.896Z,24.22
2023-04-01T10:18:19.915Z,24.22
2023-04-01T10:19:19.945Z,24.23
2023-04-01T10:20:19.959Z,24.23
2023-04-01T10:21:19.986Z,24.22
2023-04-01T10:22:19.989Z,24.23
2023-04-01T10:23:20.013Z,24.23
2023-04-01T10:24:20.044Z,24.23
2023-04-01T10:25:20.057Z,24.23
2023-04-01T10:26:20.068Z,24.23
2023-04-01T10:27:20.113Z,24.23
2023-04-01T10:28:20.128Z,24.23
2023-04-01T10:29:20.154Z,24.24
2023-04-01T10:30:20.189Z,24.24
2023-04-01T10:31:20.194Z,24.25
2023-04-01T10:32:20.241Z,24.24
2023-04-01T10:33:20.261Z,24.24
2023-04-01T10:34:20.283Z,24.24
2023-04-01T10:35:20.319Z,24.24
2023-04-01T10:36:20.405Z,24.25
2023-04-01T10:37:20.326Z,24.25
2023-04-01T10:38:20.361Z,24.25
2023-04-01T10:39:20.382Z,24.25
2023-04-01T10:40:20.624Z,24.26
2023-04-01T10:41:20.399Z,24.26
2023-04-01T10:42:20.427Z,24.26
2023-04-01T10:43:20.430Z,24.26
2023-04-01T10:44:20.437Z,24.26
2023-04-01T10:45:20.478Z,24.27
2023-04-01T10:46:20.544Z,24.27
2023-04-01T10:47:20.596Z,24.27
2023-04-01T10:48:20.528Z,24.28
2023-04-01T10:49:20.786Z,24.28
2023-04-01T10:50:20.579Z,24.28
2023-04-01T10:51:20.612Z,24.28
2023-04-01T10:52:20.626Z,24.28
2023-04-01T10:53:20.628Z,24.28
2023-04-01T10:54:20.705Z,24.28
2023-04-01T10:55:20.693Z,24.29
2023-04-01T10:56:20.707Z,24.29
2023-04-01T10:57:20.745Z,24.29
2023-04-01T10:58:20.729Z,24.29
2023-04-01T10:59:20.795Z,24.29
2023-04-01T11:00:20.775Z,24.29
2023-04-01T11:01:20.841Z,24.29
2023-04-01T11:02:20.888Z,24.31
2023-04-01T11:03:21.000Z,24.30
2023-04-01T11:04:20.874Z,24.31
2023-04-01T11:05:21.326Z,24.30
2023-04-01T11:06:20.912Z,24.31
2023-04-01T11:07:20.957Z,24.31
2023-04-01T11:08:20.958Z,24.31
2023-04-01T11:09:20.953Z,24.33
2023-04-01T11:10:21.005Z,24.33
2023-04-01T11:11:21.010Z,24.32
2023-04-01T11:12:21.037Z,24.33
2023-04-01T11:13:21.101Z,24.33
2023-04-01T11:14:21.065Z,24.34
2023-04-01T11:15:21.104Z,24.34
2023-04-01T11:16:21.199Z,24.34
2023-04-01T11:17:21.130Z,24.35
2023-04-01T11:18:21.225Z,24.35
2023-04-01T11:19:21.182Z,24.36
2023-04-01T11:20:21.182Z,24.36
2023-04-01T11:21:21.232Z,24.35
2023-04-01T11:22:21.224Z,24.36
2023-04-01T11:23:21.276Z,24.37
2023-04-01T11:24:21.260Z,24.37
2023-04-01T11:25:21.269Z,24.37
2023-04-01T11:26:21.265Z,24.37
2023-04-01T11:27:21.356Z,24.38
2023-04-01T11:28:21.335Z,24.38
2023-04-01T11:29:21.339Z,24.38
2023-04-01T11:30:21.336Z,24.38
2023-04-01T11:31:21.378Z,24.39
2023-04-01T11:32:21.399Z,24.38
2023-04-01T11:33:21.399Z,24.38
2023-04-01T11:34:21.407Z,24.38
2023-04-01T11:35:21.400Z,24.38
2023-04-01T11:36:21.448Z,24.38
2023-04-01T11:37:21.427Z,24.38
2023-04-01T11:38:21.474Z,24.37
2023-04-01T11:39:21.505Z,24.38
2023-04-01T11:40:21.504Z,24.38
2023-04-01T11:41:21.500Z,24.37
2023-04-01T11:42:21.518Z,24.37
2023-04-01T11:43:32.265Z,24.37
2023-04-01T11:44:22.537Z,24.37
2023-04-01T11:45:21.528Z,24.38
2023-04-01T11:46:21.572Z,24.38
2023-04-01T11:47:21.473Z,24.39
2023-04-01T11:48:21.456Z,24.40
2023-04-01T11:49:21.402Z,24.40
2023-04-01T11:50:21.377Z,24.40
2023-04-01T11:51:21.328Z,24.40
2023-04-01T11:52:21.314Z,24.41
2023-04-01T11:53:21.293Z,24.41
2023-04-01T11:54:21.274Z,24.41
2023-04-01T11:55:21.244Z,24.41
2023-04-01T11:56:21.230Z,24.40
2023-04-01T11:57:21.212Z,24.40
2023-04-01T11:58:21.187Z,24.39
2023-04-01T11:59:21.167Z,24.40
2023-04-01T12:00:21.662Z,24.40
2023-04-01T12:01:21.200Z,24.40
2023-04-01T12:02:21.553Z,24.40
2023-04-01T12:03:21.361Z,24.41
2023-04-01T12:04:21.258Z,24.40
2023-04-01T12:05:21.283Z,24.41
2023-04-01T12:06:21.277Z,24.41
2023-04-01T12:07:21.286Z,24.41
2023-04-01T12:08:21.342Z,24.40
2023-04-01T12:09:21.348Z,24.41
2023-04-01T12:10:21.349Z,24.42
2023-04-01T12:11:21.383Z,24.42
2023-04-01T12:12:21.408Z,24.42
2023-04-01T12:13:21.420Z,24.42
2023-04-01T12:14:21.389Z,24.42
2023-04-01T12:15:21.448Z,24.41
2023-04-01T12:16:21.453Z,24.42
2023-04-01T12:17:21.485Z,24.42
2023-04-01T12:18:21.476Z,24.42
2023-04-01T12:19:21.506Z,24.42
2023-04-01T12:20:21.489Z,24.41
2023-04-01T12:21:21.564Z,24.43
2023-04-01T12:22:21.520Z,24.42
2023-04-01T12:23:21.530Z,24.42
2023-04-01T12:24:21.540Z,24.42
2023-04-01T12:25:21.541Z,24.42
2023-04-01T12:26:21.536Z,24.42
2023-04-01T12:27:21.560Z,24.41
2023-04-01T12:28:21.594Z,24.41
2023-04-01T12:29:21.583Z,24.41
2023-04-01T12:30:21.576Z,24.41
2023-04-01T12:31:21.610Z,24.41
2023-04-01T12:32:21.681Z,24.41
2023-04-01T12:33:21.637Z,24.40
2023-04-01T12:34:21.662Z,24.40
2023-04-01T12:35:21.708Z,24.39
2023-04-01T12:36:21.701Z,24.40
2023-04-01T12:37:21.672Z,24.39
2023-04-01T12:38:21.918Z,24.39
2023-04-01T12:39:21.743Z,24.38
2023-04-01T12:40:21.756Z,24.38
2023-04-01T12:41:21.737Z,24.38
2023-04-01T12:42:21.749Z,24.38
2023-04-01T12:43:21.731Z,24.37
2023-04-01T12:44:21.723Z,24.37
2023-04-01T12:45:21.789Z,24.36
2023-04-01T12:46:21.827Z,24.35
2023-04-01T12:47:21.801Z,24.33
2023-04-01T12:48:21.889Z,24.31
2023-04-01T12:49:21.840Z,24.31
2023-04-01T12:50:21.853Z,24.31
2023-04-01T12:51:21.863Z,24.30
2023-04-01T12:52:21.911Z,24.29